createdAt,value
2017-12-19T00:01:04.852Z,1.50
2017-12-19T00:03:33.495Z,1.50
2017-12-19T00:06:02.564Z,1.50
2017-12-19T00:08:30.604Z,1.40
2017-12-19T00:10:58.623Z,1.40
2017-12-19T00:13:26.668Z,1.40
2017-12-19T00:15:54.690Z,1.40
2017-12-19T00:18:22.688Z,1.40
2017-12-19T00:20:50.764Z,1.40
2017-12-19T00:23:18.799Z,1.30
2017-12-19T00:25:46.882Z,1.30
2017-12-19T00:28:14.883Z,1.40
2017-12-19T00:30:42.949Z,1.40
2017-12-19T00:33:10.984Z,1.30
2017-12-19T00:35:39.880Z,1.50
2017-12-19T00:38:07.914Z,1.50
2017-12-19T00:40:35.949Z,1.50
2017-12-19T00:43:03.955Z,1.50
2017-12-19T00:45:31.953Z,1.60
2017-12-19T00:48:00.796Z,1.60
2017-12-19T00:50:28.808Z,1.60
2017-12-19T00:52:57.608Z,1.60
2017-12-19T00:55:26.357Z,1.60
2017-12-19T00:57:54.371Z,1.60
2017-12-19T01:00:22.430Z,1.60
2017-12-19T01:02:50.465Z,1.60
2017-12-19T01:05:18.443Z,1.60
2017-12-19T01:07:46.443Z,1.60
2017-12-19T01:10:14.426Z,1.60
2017-12-19T01:12:42.414Z,1.60
2017-12-19T01:15:10.404Z,1.60
2017-12-19T01:17:38.570Z,1.70
2017-12-19T01:20:06.540Z,1.60
2017-12-19T01:22:34.585Z,1.60
2017-12-19T01:25:03.331Z,1.60
2017-12-19T01:27:31.355Z,1.60
2017-12-19T01:29:59.303Z,1.50
2017-12-19T01:32:27.306Z,1.50
2017-12-19T01:34:55.247Z,1.50
2017-12-19T01:37:24.003Z,1.50
2017-12-19T01:39:51.928Z,1.50
2017-12-19T01:42:19.966Z,1.60
2017-12-19T01:44:47.920Z,1.50
2017-12-19T01:47:15.929Z,1.50
2017-12-19T01:49:43.960Z,1.50
2017-12-19T01:52:11.931Z,1.50
2017-12-19T01:54:39.919Z,1.50
2017-12-19T01:57:07.852Z,1.50
2017-12-19T01:59:35.846Z,1.50
2017-12-19T02:02:03.786Z,1.50
2017-12-19T02:04:31.800Z,1.50
2017-12-19T02:06:59.727Z,1.40
2017-12-19T02:09:27.694Z,1.40
2017-12-19T02:11:55.609Z,1.50
2017-12-19T02:14:23.590Z,1.50
2017-12-19T02:16:51.682Z,1.60
2017-12-19T02:19:19.771Z,1.60
2017-12-19T02:21:47.755Z,1.60
2017-12-19T02:24:15.817Z,1.60
2017-12-19T02:26:43.821Z,1.50
2017-12-19T02:29:11.859Z,1.50
2017-12-19T02:31:39.861Z,1.50
2017-12-19T02:34:07.961Z,1.50
2017-12-19T02:36:36.010Z,1.50
2017-12-19T02:39:04.126Z,1.60
2017-12-19T02:41:32.130Z,1.60
2017-12-19T02:44:00.241Z,1.60
2017-12-19T02:46:31.924Z,1.70
2017-12-19T02:48:59.973Z,1.70
2017-12-19T02:51:27.963Z,1.70
2017-12-19T02:53:56.770Z,1.70
2017-12-19T02:56:24.784Z,1.70
2017-12-19T02:58:52.840Z,1.70
2017-12-19T03:01:20.856Z,1.70
2017-12-19T03:03:48.915Z,1.60
2017-12-19T03:06:16.910Z,1.50
2017-12-19T03:08:44.969Z,1.60
2017-12-19T03:11:12.910Z,1.70
2017-12-19T03:13:40.940Z,1.70
2017-12-19T03:16:09.084Z,1.70
2017-12-19T03:18:37.122Z,1.70
2017-12-19T03:21:05.172Z,1.60
2017-12-19T03:23:33.170Z,1.60
2017-12-19T03:26:01.215Z,1.60
2017-12-19T03:28:29.196Z,1.60
2017-12-19T03:30:57.234Z,1.70
2017-12-19T03:33:25.216Z,1.60
2017-12-19T03:35:53.246Z,1.60
2017-12-19T03:38:21.242Z,1.50
2017-12-19T03:40:49.300Z,1.50
2017-12-19T03:43:17.276Z,1.50
2017-12-19T03:45:45.319Z,1.50
2017-12-19T03:48:13.309Z,1.50
2017-12-19T03:50:41.341Z,1.60
2017-12-19T03:53:09.334Z,1.70
2017-12-19T03:55:37.371Z,1.70
2017-12-19T03:58:05.381Z,1.70
2017-12-19T04:00:33.645Z,1.70
2017-12-19T04:03:01.665Z,1.80
2017-12-19T04:05:29.723Z,1.70
2017-12-19T04:08:02.323Z,1.70
2017-12-19T04:10:30.375Z,1.80
2017-12-19T04:12:59.127Z,1.80
2017-12-19T04:15:27.163Z,1.70
2017-12-19T04:17:55.156Z,1.80
2017-12-19T04:20:23.200Z,1.70
2017-12-19T04:22:51.157Z,1.70
2017-12-19T04:25:19.234Z,1.70
2017-12-19T04:27:47.208Z,1.70
2017-12-19T04:30:15.270Z,1.60
2017-12-19T04:32:43.258Z,1.60
2017-12-19T04:35:11.280Z,1.60
2017-12-19T04:37:40.411Z,1.60
2017-12-19T04:40:09.224Z,1.70
2017-12-19T04:42:37.224Z,1.60
2017-12-19T04:45:05.267Z,1.60
2017-12-19T04:47:33.302Z,1.70
2017-12-19T04:50:01.362Z,1.60
2017-12-19T04:52:29.356Z,1.70
2017-12-19T04:54:58.205Z,1.70
2017-12-19T04:57:26.169Z,1.70
2017-12-19T04:59:54.226Z,1.70
2017-12-19T05:02:22.242Z,1.70
2017-12-19T05:04:51.302Z,1.70
2017-12-19T05:07:19.442Z,1.60
2017-12-19T05:09:47.498Z,1.60
2017-12-19T05:12:16.288Z,1.70
2017-12-19T05:14:51.932Z,1.70
2017-12-19T05:17:20.908Z,1.70
2017-12-19T05:19:48.940Z,1.60
2017-12-19T05:22:22.298Z,1.60
2017-12-19T05:24:54.003Z,1.60
2017-12-19T05:27:25.180Z,1.60
2017-12-19T05:29:56.535Z,1.60
2017-12-19T05:32:24.752Z,1.60
2017-12-19T05:34:52.828Z,1.60
2017-12-19T05:37:24.569Z,1.60
2017-12-19T05:39:52.652Z,1.70
2017-12-19T05:42:26.150Z,1.70
2017-12-19T05:44:55.226Z,1.80
2017-12-19T05:47:23.294Z,1.70
2017-12-19T05:49:51.322Z,1.60
2017-12-19T05:52:19.316Z,1.60
2017-12-19T05:54:47.356Z,1.60
2017-12-19T05:57:15.376Z,1.60
2017-12-19T05:59:43.387Z,1.60
2017-12-19T06:02:11.469Z,1.60
2017-12-19T06:04:39.518Z,1.70
2017-12-19T06:07:16.732Z,1.70
2017-12-19T06:09:44.814Z,1.70
2017-12-19T06:12:12.848Z,1.70
2017-12-19T06:14:40.940Z,1.70
2017-12-19T06:17:09.012Z,1.70
2017-12-19T06:19:37.084Z,1.80
2017-12-19T06:22:05.075Z,1.80
2017-12-19T06:24:33.149Z,1.80
2017-12-19T06:27:01.175Z,1.80
2017-12-19T06:29:29.246Z,1.70
2017-12-19T06:31:58.024Z,1.70
2017-12-19T06:34:26.111Z,1.70
2017-12-19T06:36:56.161Z,1.70
2017-12-19T06:39:24.197Z,1.70
2017-12-19T06:41:52.281Z,1.80
2017-12-19T06:44:20.314Z,1.80
2017-12-19T06:46:48.377Z,1.80
2017-12-19T06:49:16.377Z,1.80
2017-12-19T06:51:45.199Z,1.80
2017-12-19T06:54:13.182Z,1.80
2017-12-19T06:56:41.198Z,1.90
2017-12-19T06:59:09.215Z,1.70
2017-12-19T07:01:37.261Z,1.70
2017-12-19T07:04:05.278Z,1.60
2017-12-19T07:06:36.759Z,1.60
2017-12-19T07:09:04.800Z,1.60
2017-12-19T07:11:32.844Z,1.70
2017-12-19T07:14:00.866Z,1.60
2017-12-19T07:16:28.907Z,1.60
2017-12-19T07:18:56.866Z,1.60
2017-12-19T07:21:24.926Z,1.70
2017-12-19T07:23:52.920Z,1.70
2017-12-19T07:26:20.978Z,1.70
2017-12-19T07:28:49.017Z,1.70
2017-12-19T07:31:17.086Z,1.60
2017-12-19T07:33:45.085Z,1.60
2017-12-19T07:36:13.935Z,1.70
2017-12-19T07:38:41.951Z,1.70
2017-12-19T07:41:10.016Z,1.80
2017-12-19T07:43:38.004Z,1.80
2017-12-19T07:46:06.040Z,1.80
2017-12-19T07:48:34.003Z,1.80
2017-12-19T07:51:02.003Z,1.80
2017-12-19T07:53:30.027Z,1.80
2017-12-19T07:55:58.031Z,1.80
2017-12-19T07:58:27.130Z,1.90
2017-12-19T08:00:55.173Z,1.90
2017-12-19T08:03:23.150Z,1.90
2017-12-19T08:05:51.162Z,2.00
2017-12-19T08:08:19.112Z,2.10
2017-12-19T08:10:47.119Z,2.10
2017-12-19T08:13:15.073Z,2.10
2017-12-19T08:15:43.135Z,2.20
2017-12-19T08:18:11.197Z,2.20
2017-12-19T08:20:39.236Z,2.20
2017-12-19T08:23:07.193Z,2.20
2017-12-19T08:25:35.219Z,2.30
2017-12-19T08:28:05.185Z,2.30
2017-12-19T08:30:33.207Z,2.30
2017-12-19T08:33:01.928Z,2.40
2017-12-19T08:35:29.905Z,2.30
2017-12-19T08:37:57.847Z,2.40
2017-12-19T08:40:25.828Z,2.50
2017-12-19T08:42:53.775Z,2.50
2017-12-19T08:45:21.794Z,2.40
2017-12-19T08:47:49.765Z,2.40
2017-12-19T08:50:17.853Z,2.40
2017-12-19T08:52:45.793Z,2.40
2017-12-19T08:55:13.779Z,2.50
2017-12-19T08:57:47.561Z,2.50
2017-12-19T09:00:15.593Z,2.50
2017-12-19T09:02:43.512Z,2.50
2017-12-19T09:05:11.502Z,2.50
2017-12-19T09:07:39.475Z,2.60
2017-12-19T09:10:07.477Z,2.60
2017-12-19T09:12:35.463Z,2.70
2017-12-19T09:15:03.435Z,2.70
2017-12-19T09:17:31.448Z,2.70
2017-12-19T09:19:59.396Z,2.80
2017-12-19T09:22:27.399Z,2.90
2017-12-19T09:24:55.355Z,2.90
2017-12-19T09:27:31.507Z,2.90
2017-12-19T09:29:59.451Z,3.00
2017-12-19T09:32:27.439Z,3.00
2017-12-19T09:34:55.378Z,3.00
2017-12-19T09:37:24.201Z,3.10
2017-12-19T09:39:52.141Z,3.10
2017-12-19T09:42:20.882Z,3.20
2017-12-19T09:44:48.857Z,3.10
2017-12-19T09:47:16.881Z,3.30
2017-12-19T09:49:44.812Z,3.30
2017-12-19T09:52:12.812Z,3.10
2017-12-19T09:54:41.510Z,3.10
2017-12-19T09:57:09.543Z,3.10
2017-12-19T09:59:37.489Z,3.20
2017-12-19T10:02:05.462Z,3.20
2017-12-19T10:04:33.417Z,3.20
2017-12-19T10:07:01.417Z,3.10
2017-12-19T10:09:29.353Z,3.10
2017-12-19T10:11:57.358Z,3.20
2017-12-19T10:14:25.349Z,3.10
2017-12-19T10:16:53.349Z,3.20
2017-12-19T10:19:21.419Z,3.20
2017-12-19T10:21:49.606Z,3.20
2017-12-19T10:24:17.730Z,3.20
2017-12-19T10:26:46.005Z,3.20
2017-12-19T10:29:14.060Z,3.20
2017-12-19T10:31:42.142Z,3.20
2017-12-19T10:34:10.125Z,3.20
2017-12-19T10:36:38.192Z,3.20
2017-12-19T10:39:06.169Z,3.20
2017-12-19T10:41:36.223Z,3.20
2017-12-19T10:44:04.736Z,3.20
2017-12-19T10:46:32.736Z,3.20
2017-12-19T10:49:00.689Z,3.30
2017-12-19T10:51:28.708Z,3.30
2017-12-19T10:53:57.465Z,3.30
2017-12-19T10:56:25.490Z,3.30
2017-12-19T10:58:53.423Z,3.30
2017-12-19T11:01:21.419Z,3.20
2017-12-19T11:03:49.423Z,3.20
2017-12-19T11:06:19.842Z,3.20
2017-12-19T11:08:48.939Z,2.90
2017-12-19T11:11:16.942Z,2.90
2017-12-19T11:13:44.870Z,3.00
2017-12-19T11:16:13.815Z,2.90
2017-12-19T11:18:41.793Z,3.00
2017-12-19T11:21:09.810Z,2.90
2017-12-19T11:23:39.202Z,2.80
2017-12-19T11:26:07.220Z,2.80
2017-12-19T11:28:37.419Z,2.70
2017-12-19T11:31:05.513Z,2.90
2017-12-19T11:33:33.569Z,2.90
2017-12-19T11:36:01.648Z,2.90
2017-12-19T11:38:29.679Z,2.90
2017-12-19T11:40:57.754Z,3.00
2017-12-19T11:43:25.739Z,3.00
2017-12-19T11:45:53.991Z,3.10
2017-12-19T11:48:21.992Z,3.00
2017-12-19T11:50:49.942Z,3.00
2017-12-19T11:53:17.972Z,3.10
2017-12-19T11:55:45.955Z,3.10
2017-12-19T11:58:13.956Z,3.10
2017-12-19T12:00:42.483Z,3.10
2017-12-19T12:03:10.492Z,3.10
2017-12-19T12:05:39.258Z,3.00
2017-12-19T12:08:07.272Z,2.90
2017-12-19T12:10:35.251Z,3.00
2017-12-19T12:13:03.279Z,3.10
2017-12-19T12:15:31.253Z,3.20
2017-12-19T12:17:59.520Z,3.10
2017-12-19T12:20:27.710Z,3.10
2017-12-19T12:22:55.688Z,3.20
2017-12-19T12:25:24.468Z,3.20
2017-12-19T12:27:52.517Z,3.30
2017-12-19T12:30:20.481Z,3.20
2017-12-19T12:32:48.480Z,3.20
2017-12-19T12:35:16.806Z,3.20
2017-12-19T12:37:44.856Z,3.10
2017-12-19T12:40:12.882Z,3.10
2017-12-19T12:42:40.917Z,3.10
2017-12-19T12:45:08.945Z,3.00
2017-12-19T12:47:38.258Z,3.10
2017-12-19T12:50:06.371Z,3.10
2017-12-19T12:52:34.424Z,3.20
2017-12-19T12:55:02.516Z,3.30
2017-12-19T12:57:30.641Z,3.30
2017-12-19T12:59:58.644Z,3.40
2017-12-19T13:02:27.984Z,3.30
2017-12-19T13:04:56.455Z,3.40
2017-12-19T13:07:25.958Z,3.40
2017-12-19T13:09:54.061Z,3.50
2017-12-19T13:12:22.351Z,3.50
2017-12-19T13:14:52.472Z,3.60
2017-12-19T13:17:21.382Z,3.60
2017-12-19T13:19:49.353Z,3.60
2017-12-19T13:22:17.324Z,3.40
2017-12-19T13:24:45.256Z,3.40
2017-12-19T13:27:13.277Z,3.40
2017-12-19T13:29:42.192Z,3.40
2017-12-19T13:32:10.326Z,3.50
2017-12-19T13:34:38.259Z,3.50
2017-12-19T13:37:06.518Z,3.50
2017-12-19T13:39:35.227Z,3.50
2017-12-19T13:42:03.302Z,3.50
2017-12-19T13:44:31.689Z,3.50
2017-12-19T13:46:59.720Z,3.50
2017-12-19T13:49:27.721Z,3.60
2017-12-19T13:51:55.666Z,3.70
2017-12-19T13:54:23.648Z,3.70
2017-12-19T13:56:51.557Z,3.70
2017-12-19T13:59:19.614Z,3.60
2017-12-19T14:01:47.521Z,3.50
2017-12-19T14:04:15.564Z,3.50
2017-12-19T14:06:44.284Z,3.40
2017-12-19T14:09:12.318Z,3.40
2017-12-19T14:11:41.040Z,3.50
2017-12-19T14:14:09.048Z,3.50
2017-12-19T14:16:37.084Z,3.60
2017-12-19T14:19:05.103Z,3.60
2017-12-19T14:21:33.175Z,3.60
2017-12-19T14:24:01.267Z,3.70
2017-12-19T14:26:29.232Z,3.70
2017-12-19T14:28:57.253Z,3.70
2017-12-19T14:31:26.776Z,3.60
2017-12-19T14:33:54.872Z,3.50
2017-12-19T14:36:22.805Z,3.50
2017-12-19T14:38:50.726Z,3.50
2017-12-19T14:41:19.097Z,3.40
2017-12-19T14:43:47.045Z,3.40
2017-12-19T14:46:16.294Z,3.40
2017-12-19T14:48:45.018Z,3.40
2017-12-19T14:51:13.015Z,3.40
2017-12-19T14:53:41.196Z,3.50
2017-12-19T14:56:09.165Z,3.50
2017-12-19T14:58:37.103Z,3.40
2017-12-19T15:01:05.117Z,3.40
2017-12-19T15:03:33.059Z,3.40
2017-12-19T15:06:01.038Z,3.40
2017-12-19T15:08:29.037Z,3.40
2017-12-19T15:10:57.031Z,3.40
2017-12-19T15:13:24.990Z,3.40
2017-12-19T15:15:53.021Z,3.40
2017-12-19T15:18:20.992Z,3.40
2017-12-19T15:20:48.990Z,3.40
2017-12-19T15:23:16.906Z,3.40
2017-12-19T15:25:44.926Z,3.40
2017-12-19T15:28:12.872Z,3.30
2017-12-19T15:30:40.902Z,3.30
2017-12-19T15:33:08.856Z,3.20
2017-12-19T15:35:36.783Z,3.20
2017-12-19T15:38:04.877Z,3.20
2017-12-19T15:40:32.882Z,3.30
2017-12-19T15:43:00.837Z,3.20
2017-12-19T15:45:28.841Z,3.20
2017-12-19T15:47:56.884Z,3.20
2017-12-19T15:50:25.610Z,3.20
2017-12-19T15:52:53.651Z,3.20
2017-12-19T15:55:21.620Z,3.20
2017-12-19T15:57:49.646Z,3.30
2017-12-19T16:00:17.611Z,3.30
2017-12-19T16:02:45.622Z,3.30
2017-12-19T16:05:13.587Z,3.30
2017-12-19T16:07:45.461Z,3.20
2017-12-19T16:10:13.466Z,3.20
2017-12-19T16:12:41.505Z,3.20
2017-12-19T16:15:10.229Z,3.20
2017-12-19T16:17:38.238Z,3.20
2017-12-19T16:20:06.222Z,3.20
2017-12-19T16:22:34.216Z,3.20
2017-12-19T16:25:02.176Z,3.20
2017-12-19T16:27:30.173Z,3.20
2017-12-19T16:29:58.167Z,3.20
2017-12-19T16:32:26.178Z,3.20
2017-12-19T16:34:54.131Z,3.20
2017-12-19T16:37:22.319Z,3.20
2017-12-19T16:39:50.274Z,3.20
2017-12-19T16:42:18.274Z,3.20
2017-12-19T16:44:46.231Z,3.20
2017-12-19T16:47:15.017Z,3.20
2017-12-19T16:49:43.015Z,3.20
2017-12-19T16:52:10.955Z,3.30
2017-12-19T16:54:39.724Z,3.30
2017-12-19T16:57:07.680Z,3.20
2017-12-19T16:59:35.691Z,3.20
2017-12-19T17:02:03.658Z,3.20
2017-12-19T17:04:31.668Z,3.30
2017-12-19T17:06:59.746Z,3.20
2017-12-19T17:09:27.758Z,3.20
2017-12-19T17:11:55.698Z,3.20
2017-12-19T17:14:23.739Z,3.20
2017-12-19T17:16:51.710Z,3.20
2017-12-19T17:19:19.720Z,3.20
2017-12-19T17:21:47.706Z,3.20
2017-12-19T17:24:15.742Z,3.10
2017-12-19T17:26:43.684Z,3.10
2017-12-19T17:29:11.694Z,3.10
2017-12-19T17:31:39.668Z,3.10
2017-12-19T17:34:07.657Z,3.10
2017-12-19T17:36:35.715Z,3.20
2017-12-19T17:39:03.805Z,3.10
2017-12-19T17:41:31.802Z,3.00
2017-12-19T17:43:59.850Z,3.00
2017-12-19T17:46:27.815Z,3.10
2017-12-19T17:48:55.856Z,3.10
2017-12-19T17:51:27.254Z,3.00
2017-12-19T17:53:55.475Z,3.10
2017-12-19T17:56:23.457Z,3.10
2017-12-19T17:58:51.513Z,3.10
2017-12-19T18:01:19.495Z,3.10
2017-12-19T18:03:47.606Z,3.10
2017-12-19T18:06:15.569Z,3.00
2017-12-19T18:08:43.635Z,3.10
2017-12-19T18:11:11.590Z,3.10
2017-12-19T18:13:39.902Z,3.10
2017-12-19T18:16:07.880Z,3.10
2017-12-19T18:18:36.692Z,3.00
2017-12-19T18:21:04.738Z,3.00
2017-12-19T18:23:32.755Z,3.10
2017-12-19T18:26:00.872Z,3.00
2017-12-19T18:28:29.017Z,3.10
2017-12-19T18:30:57.032Z,3.10
2017-12-19T18:33:25.076Z,3.10
2017-12-19T18:35:53.051Z,3.10
2017-12-19T18:38:21.113Z,3.10
2017-12-19T18:40:51.097Z,3.10
2017-12-19T18:43:19.102Z,3.10
2017-12-19T18:45:47.074Z,3.10
2017-12-19T18:48:15.112Z,3.10
2017-12-19T18:50:43.087Z,3.10
2017-12-19T18:53:11.106Z,3.10
2017-12-19T18:55:39.054Z,3.10
2017-12-19T18:58:07.058Z,3.00
2017-12-19T19:00:35.026Z,3.10
2017-12-19T19:03:03.117Z,3.00
2017-12-19T19:05:31.875Z,3.00
2017-12-19T19:07:59.877Z,3.00
2017-12-19T19:10:28.695Z,2.90
2017-12-19T19:12:56.752Z,2.90
2017-12-19T19:15:24.796Z,2.90
2017-12-19T19:17:54.041Z,2.90
2017-12-19T19:20:22.094Z,3.00
2017-12-19T19:22:50.057Z,3.00
2017-12-19T19:25:19.264Z,2.90
2017-12-19T19:27:48.171Z,2.90
2017-12-19T19:30:16.327Z,2.90
2017-12-19T19:32:45.096Z,3.00
2017-12-19T19:35:13.879Z,2.90
2017-12-19T19:37:41.914Z,3.00
2017-12-19T19:40:09.970Z,3.00
2017-12-19T19:42:38.757Z,3.00
2017-12-19T19:45:06.866Z,3.00
2017-12-19T19:47:35.023Z,3.00
2017-12-19T19:50:05.914Z,3.00
2017-12-19T19:52:36.799Z,3.10
2017-12-19T19:55:05.028Z,3.10
2017-12-19T19:57:33.993Z,3.10
2017-12-19T20:00:02.068Z,3.00
2017-12-19T20:02:30.134Z,3.10
2017-12-19T20:04:58.188Z,3.10
2017-12-19T20:07:26.348Z,3.10
2017-12-19T20:09:54.409Z,3.10
2017-12-19T20:12:22.404Z,3.10
2017-12-19T20:14:50.476Z,3.10
2017-12-19T20:17:18.574Z,3.10
2017-12-19T20:19:46.621Z,3.10
2017-12-19T20:22:14.790Z,3.10
2017-12-19T20:24:42.852Z,3.10
2017-12-19T20:27:11.240Z,3.10
2017-12-19T20:29:39.590Z,3.10
2017-12-19T20:32:07.586Z,3.00
2017-12-19T20:34:35.631Z,3.10
2017-12-19T20:37:03.830Z,3.10
2017-12-19T20:39:31.841Z,3.10
2017-12-19T20:41:59.867Z,3.10
2017-12-19T20:44:30.282Z,3.20
2017-12-19T20:47:00.090Z,3.20
2017-12-19T20:49:28.306Z,3.20
2017-12-19T20:51:56.289Z,3.20
2017-12-19T20:54:28.370Z,3.20
2017-12-19T20:56:57.321Z,3.30
2017-12-19T20:59:25.315Z,3.30
2017-12-19T21:01:54.634Z,3.30
2017-12-19T21:04:22.677Z,3.30
2017-12-19T21:06:54.571Z,3.40
2017-12-19T21:09:22.962Z,3.40
2017-12-19T21:11:52.147Z,3.40
2017-12-19T21:14:20.246Z,3.40
2017-12-19T21:16:48.475Z,3.40
2017-12-19T21:19:16.529Z,3.40
2017-12-19T21:21:44.479Z,3.40
2017-12-19T21:24:12.499Z,3.40
2017-12-19T21:26:40.574Z,3.30
2017-12-19T21:29:08.575Z,3.30
2017-12-19T21:31:37.294Z,3.30
2017-12-19T21:34:05.320Z,3.30
2017-12-19T21:36:33.481Z,3.30
2017-12-19T21:39:01.481Z,3.30
2017-12-19T21:41:30.204Z,3.40
2017-12-19T21:43:58.953Z,3.30
2017-12-19T21:46:26.870Z,3.40
2017-12-19T21:48:54.895Z,3.40
2017-12-19T21:51:23.658Z,3.40
2017-12-19T21:53:51.643Z,3.40
2017-12-19T21:56:19.693Z,3.40
2017-12-19T21:58:48.086Z,3.40
2017-12-19T22:01:16.036Z,3.40
2017-12-19T22:03:44.031Z,3.40
2017-12-19T22:06:12.181Z,3.50
2017-12-19T22:08:40.197Z,3.40
2017-12-19T22:11:08.981Z,3.50
2017-12-19T22:13:36.971Z,3.40
2017-12-19T22:16:04.929Z,3.40
2017-12-19T22:18:35.580Z,3.50
2017-12-19T22:21:03.651Z,3.50
2017-12-19T22:23:32.356Z,3.50
2017-12-19T22:26:00.898Z,3.50
2017-12-19T22:28:28.959Z,3.50
2017-12-19T22:30:57.004Z,3.50
2017-12-19T22:33:24.967Z,3.50
2017-12-19T22:35:52.974Z,3.50
2017-12-19T22:38:21.713Z,3.50
2017-12-19T22:40:49.743Z,3.50
2017-12-19T22:43:17.690Z,3.50
2017-12-19T22:45:45.723Z,3.50
2017-12-19T22:48:13.754Z,3.50
2017-12-19T22:50:41.746Z,3.60
2017-12-19T22:53:09.722Z,3.50
2017-12-19T22:55:37.843Z,3.50
2017-12-19T22:58:06.978Z,3.50
2017-12-19T23:00:35.001Z,3.50
2017-12-19T23:03:02.933Z,3.50
2017-12-19T23:05:30.921Z,3.50
2017-12-19T23:07:58.867Z,3.50
2017-12-19T23:10:26.872Z,3.60
2017-12-19T23:12:54.822Z,3.60
2017-12-19T23:15:22.803Z,3.60
2017-12-19T23:17:50.737Z,3.60
2017-12-19T23:20:19.515Z,3.60
2017-12-19T23:22:47.435Z,3.60
2017-12-19T23:25:15.892Z,3.60
2017-12-19T23:27:44.094Z,3.60
2017-12-19T23:30:12.080Z,3.60
2017-12-19T23:32:40.011Z,3.60
2017-12-19T23:35:07.995Z,3.60
2017-12-19T23:37:35.912Z,3.60
2017-12-19T23:40:03.972Z,3.60
2017-12-19T23:42:31.917Z,3.60
2017-12-19T23:44:59.890Z,3.60
2017-12-19T23:47:27.816Z,3.60
2017-12-19T23:49:55.774Z,3.70
2017-12-19T23:52:23.711Z,3.70
2017-12-19T23:54:51.689Z,3.60
2017-12-19T23:57:19.720Z,3.70
2017-12-19T23:59:47.693Z,3.70
